Time;durP1;ratioP1;P1;durP2;ratioP2;P2;SDS_P1;SDS_P2;PMS_P1;PMS_P2;Temp;Humidity;BMP_temperature;BMP_pressure;BME280_temperature;BME280_humidity;BME280_pressure;Samples;Min_cycle;Max_cycle;Signal;HPM_P1;HPM_P2
2023/10/09 00:01:52;;;;;;;2.47;1.83;;;22.40;99.90;;;;;;5023513;28;20990;-53
2023/10/09 00:04:20;;;;;;;2.80;2.07;;;22.40;99.90;;;;;;5021178;28;20536;-55
2023/10/09 00:06:48;;;;;;;2.47;1.93;;;22.40;99.90;;;;;;5019607;28;21452;-56
2023/10/09 00:09:32;;;;;;;6.87;2.40;;;22.40;99.90;;;;;;5021644;28;20552;-57
2023/10/09 00:12:01;;;;;;;3.03;2.07;;;22.40;99.90;;;;;;5025187;28;20489;-56
2023/10/09 00:14:30;;;;;;;3.03;2.50;;;22.40;99.90;;;;;;5022396;28;20454;-51
2023/10/09 00:17:05;;;;;;;3.83;1.97;;;22.40;99.90;;;;;;5022900;28;22628;-55
2023/10/09 00:19:32;;;;;;;3.00;2.23;;;22.30;99.90;;;;;;5022262;28;21353;-54
2023/10/09 00:22:04;;;;;;;2.80;2.00;;;22.30;99.90;;;;;;5026881;28;20461;-57
2023/10/09 00:24:33;;;;;;;2.40;1.73;;;22.30;99.90;;;;;;5027349;28;20512;-57
2023/10/09 00:27:12;;;;;;;2.63;1.73;;;22.30;99.90;;;;;;5029940;28;20572;-53
2023/10/09 00:29:44;;;;;;;2.90;1.60;;;22.30;99.90;;;;;;5028395;28;20548;-57
2023/10/09 00:32:22;;;;;;;3.23;2.30;;;22.30;99.90;;;;;;5027657;28;20469;-53
2023/10/09 00:34:50;;;;;;;5.50;2.13;;;22.30;99.90;;;;;;5029461;28;20480;-51
2023/10/09 00:37:22;;;;;;;2.30;2.07;;;22.30;99.90;;;;;;5028343;28;20464;-53
2023/10/09 00:39:55;;;;;;;2.97;2.10;;;22.30;99.90;;;;;;5029088;28;20496;-55
2023/10/09 00:42:29;;;;;;;2.77;2.00;;;22.30;99.90;;;;;;5027592;28;20453;-53
2023/10/09 00:44:56;;;;;;;2.80;2.13;;;22.30;99.90;;;;;;5024753;28;20453;-53
2023/10/09 00:47:26;;;;;;;1.80;1.37;;;22.30;99.90;;;;;;5027318;28;20452;-54
2023/10/09 00:49:59;;;;;;;2.30;1.70;;;22.30;99.90;;;;;;5029519;28;20471;-58
2023/10/09 00:52:39;;;;;;;2.57;2.27;;;22.30;99.90;;;;;;5028837;28;20465;-54
2023/10/09 00:55:13;;;;;;;2.07;1.73;;;22.30;99.90;;;;;;5026931;28;20571;-55
2023/10/09 00:57:50;;;;;;;2.13;1.50;;;22.30;99.90;;;;;;5029666;28;20460;-56
2023/10/09 01:00:32;;;;;;;2.90;1.83;;;22.30;99.90;;;;;;5027212;28;20480;-54
2023/10/09 01:03:18;;;;;;;2.97;2.23;;;22.20;99.90;;;;;;5028689;28;21049;-57
2023/10/09 01:05:51;;;;;;;2.53;2.03;;;22.30;99.90;;;;;;5028325;28;20836;-55
2023/10/09 01:08:25;;;;;;;3.70;2.13;;;22.20;99.90;;;;;;5028108;28;20456;-56
2023/10/09 01:10:56;;;;;;;2.80;2.17;;;22.20;99.90;;;;;;5031241;28;20452;-56
2023/10/09 01:13:38;;;;;;;2.80;1.83;;;22.20;99.90;;;;;;5027343;28;22161;-57
2023/10/09 01:16:06;;;;;;;2.47;2.03;;;22.20;99.90;;;;;;5025222;28;20454;-57
2023/10/09 01:18:38;;;;;;;9.80;1.80;;;22.20;99.90;;;;;;5029562;28;20531;-53
2023/10/09 01:21:05;;;;;;;3.60;1.90;;;22.20;99.90;;;;;;5030926;28;20959;-57
2023/10/09 01:23:33;;;;;;;1.80;1.50;;;22.20;99.90;;;;;;5026928;28;20476;-58
2023/10/09 01:26:00;;;;;;;2.43;1.93;;;22.20;99.90;;;;;;5030354;28;20453;-55
2023/10/09 01:28:28;;;;;;;3.40;2.50;;;22.20;99.90;;;;;;5026591;28;20458;-58
2023/10/09 01:30:55;;;;;;;2.70;1.93;;;22.20;99.90;;;;;;5024555;28;20462;-55
2023/10/09 01:33:24;;;;;;;2.27;2.07;;;22.20;99.90;;;;;;5024593;28;21679;-56
2023/10/09 01:35:57;;;;;;;2.30;1.77;;;22.20;99.90;;;;;;5028389;28;20457;-57
2023/10/09 01:38:41;;;;;;;1.80;1.33;;;22.20;99.90;;;;;;5028302;28;20468;-58
2023/10/09 01:41:15;;;;;;;2.53;1.80;;;22.20;99.90;;;;;;5027667;28;20544;-53
2023/10/09 01:43:45;;;;;;;2.77;1.93;;;22.20;99.90;;;;;;5028445;28;20460;-57
2023/10/09 01:46:12;;;;;;;2.80;1.90;;;22.20;99.90;;;;;;5024219;28;20552;-58
2023/10/09 01:48:41;;;;;;;2.60;2.40;;;22.20;99.90;;;;;;5027769;28;20480;-54
2023/10/09 01:51:17;;;;;;;2.40;1.90;;;22.20;99.90;;;;;;5028766;28;20469;-50
2023/10/09 01:53:44;;;;;;;1.90;1.60;;;22.20;99.90;;;;;;5027283;28;20961;-55
2023/10/09 01:56:16;;;;;;;2.37;1.60;;;22.20;99.90;;;;;;5025216;28;20457;-55
2023/10/09 01:58:46;;;;;;;3.77;1.83;;;22.20;99.90;;;;;;5027639;28;20481;-54
2023/10/09 02:01:14;;;;;;;3.03;1.80;;;22.20;99.90;;;;;;5025144;28;21525;-54
2023/10/09 02:03:43;;;;;;;1.93;1.70;;;22.20;99.90;;;;;;5023247;28;20461;-57
2023/10/09 02:06:26;;;;;;;2.50;2.03;;;22.10;99.90;;;;;;5030059;28;20462;-56
2023/10/09 02:08:56;;;;;;;2.33;1.80;;;22.10;99.90;;;;;;5029503;28;20556;-55
2023/10/09 02:11:37;;;;;;;1.80;1.30;;;22.10;99.90;;;;;;5026132;28;20465;-54
2023/10/09 02:14:18;;;;;;;3.87;1.83;;;22.10;99.90;;;;;;5027365;28;20461;-56
2023/10/09 02:17:02;;;;;;;2.10;1.80;;;22.10;99.90;;;;;;5026783;28;20461;-50
2023/10/09 02:19:33;;;;;;;2.57;1.73;;;22.10;99.90;;;;;;5024182;28;20650;-54
2023/10/09 02:22:03;;;;;;;1.70;1.60;;;22.10;99.90;;;;;;5028931;28;20485;-56
2023/10/09 02:24:49;;;;;;;2.40;1.60;;;22.10;99.90;;;;;;5026107;28;20458;-57
2023/10/09 02:27:39;;;;;;;2.63;1.63;;;22.10;99.90;;;;;;5028338;28;20453;-52
2023/10/09 02:30:15;;;;;;;2.30;1.83;;;22.10;99.90;;;;;;5026479;28;20469;-52
2023/10/09 02:32:43;;;;;;;2.40;1.70;;;22.10;99.90;;;;;;5025175;28;20956;-55
2023/10/09 02:35:20;;;;;;;2.20;1.73;;;22.10;99.90;;;;;;5027517;28;20459;-51
2023/10/09 02:37:47;;;;;;;2.40;1.57;;;22.10;99.90;;;;;;5028962;28;20579;-56
2023/10/09 02:40:23;;;;;;;2.37;2.07;;;22.10;99.90;;;;;;5028181;28;20992;-52
2023/10/09 02:42:51;;;;;;;1.70;1.43;;;22.10;99.90;;;;;;5026165;28;20500;-56
2023/10/09 02:45:19;;;;;;;2.30;1.87;;;22.10;99.90;;;;;;5026019;28;20457;-55
2023/10/09 02:47:48;;;;;;;2.00;1.50;;;22.10;99.90;;;;;;5028522;28;20450;-55
2023/10/09 02:50:23;;;;;;;2.60;1.80;;;22.00;99.90;;;;;;5026683;28;20555;-57
2023/10/09 02:52:53;;;;;;;4.60;1.70;;;22.00;99.90;;;;;;5025567;28;21020;-55
2023/10/09 02:55:25;;;;;;;2.30;1.37;;;22.00;99.90;;;;;;5019007;28;20658;-56
2023/10/09 02:58:05;;;;;;;2.53;1.77;;;22.00;99.90;;;;;;5027325;28;20508;-57
2023/10/09 03:00:32;;;;;;;2.63;1.57;;;22.00;99.90;;;;;;5022977;28;20477;-56
2023/10/09 03:02:59;;;;;;;2.53;1.60;;;22.00;99.90;;;;;;5022697;28;20465;-58
2023/10/09 03:05:28;;;;;;;2.80;1.40;;;22.00;99.90;;;;;;5024731;28;21335;-57
2023/10/09 03:07:55;;;;;;;1.80;1.60;;;22.00;99.90;;;;;;5026447;28;20457;-55
2023/10/09 03:10:23;;;;;;;2.60;1.40;;;22.00;99.90;;;;;;5026926;28;20469;-51
2023/10/09 03:12:53;;;;;;;2.63;1.47;;;22.00;99.90;;;;;;5025486;28;21749;-57
2023/10/09 03:15:21;;;;;;;2.00;1.43;;;22.00;99.90;;;;;;5021583;28;20544;-51
2023/10/09 03:17:48;;;;;;;1.80;1.30;;;22.00;99.90;;;;;;5027530;28;20457;-56
2023/10/09 03:20:17;;;;;;;2.83;1.90;;;22.00;99.90;;;;;;5028046;28;20580;-55
2023/10/09 03:22:45;;;;;;;1.90;1.47;;;22.00;99.90;;;;;;5026344;28;20458;-54
2023/10/09 03:25:14;;;;;;;1.93;1.50;;;22.00;99.90;;;;;;5021977;28;20460;-57
2023/10/09 03:27:45;;;;;;;2.07;1.50;;;22.00;99.90;;;;;;5027692;28;21008;-53
2023/10/09 03:30:16;;;;;;;2.20;1.47;;;22.00;99.90;;;;;;5025676;28;20459;-58
2023/10/09 03:32:50;;;;;;;2.83;2.20;;;22.00;99.90;;;;;;5026864;28;20547;-52
2023/10/09 03:35:23;;;;;;;1.70;1.60;;;22.00;99.90;;;;;;5022217;28;20466;-52
2023/10/09 03:37:52;;;;;;;1.83;1.20;;;21.90;99.90;;;;;;5025122;28;20488;-54
2023/10/09 03:40:21;;;;;;;2.57;1.80;;;22.00;99.90;;;;;;5020324;28;21312;-54
2023/10/09 03:42:48;;;;;;;1.93;1.50;;;21.90;99.90;;;;;;5025553;28;23884;-55
2023/10/09 03:45:25;;;;;;;2.83;1.60;;;21.90;99.90;;;;;;5025107;28;20536;-56
2023/10/09 03:48:02;;;;;;;1.70;1.40;;;21.90;99.90;;;;;;5025264;28;20603;-57
2023/10/09 03:50:35;;;;;;;2.30;1.80;;;21.90;99.90;;;;;;5025766;28;20507;-53
2023/10/09 03:53:06;;;;;;;2.37;1.70;;;21.90;99.90;;;;;;5027010;28;21025;-54
2023/10/09 03:55:33;;;;;;;3.20;2.30;;;21.90;99.90;;;;;;5025311;28;20465;-53
2023/10/09 03:58:00;;;;;;;2.43;1.60;;;21.90;99.90;;;;;;5023828;28;20461;-55
2023/10/09 04:00:29;;;;;;;2.10;1.50;;;21.90;99.90;;;;;;5022534;28;20488;-54
2023/10/09 04:02:58;;;;;;;1.70;1.23;;;21.90;99.90;;;;;;5024743;28;20475;-52
2023/10/09 04:05:26;;;;;;;1.87;1.57;;;21.90;99.90;;;;;;5026624;28;20461;-55
2023/10/09 04:07:54;;;;;;;2.67;1.70;;;21.90;99.90;;;;;;5026071;28;20453;-55
2023/10/09 04:13:09;;;;;;;2.37;1.60;;;21.90;99.90;;;;;;5027253;28;20444;-56
2023/10/09 04:15:36;;;;;;;1.90;1.70;;;21.90;99.90;;;;;;5023588;28;21494;-56
2023/10/09 04:18:07;;;;;;;2.27;1.57;;;21.90;99.90;;;;;;5024267;28;20466;-53
2023/10/09 04:23:33;;;;;;;2.67;1.40;;;21.90;99.90;;;;;;5024161;28;20456;-52
2023/10/09 04:25:59;;;;;;;2.20;1.40;;;21.90;99.90;;;;;;5025635;28;21024;-55
2023/10/09 04:28:27;;;;;;;1.90;1.43;;;21.90;99.90;;;;;;5023923;28;20449;-56
2023/10/09 04:30:55;;;;;;;1.50;1.30;;;21.80;99.90;;;;;;5025730;28;20461;-54
2023/10/09 04:33:34;;;;;;;1.80;1.60;;;21.90;99.90;;;;;;5027368;28;20461;-53
2023/10/09 04:36:22;;;;;;;2.33;1.87;;;21.80;99.90;;;;;;5027606;28;20457;-54
2023/10/09 04:42:26;;;;;;;1.70;1.23;;;21.80;99.90;;;;;;5034864;27;20653;-55
2023/10/09 04:47:38;;;;;;;1.60;1.43;;;21.80;99.90;;;;;;5030429;28;21546;-55
2023/10/09 04:50:11;;;;;;;2.53;1.83;;;21.80;99.90;;;;;;5029576;28;20526;-54
2023/10/09 04:52:52;;;;;;;2.20;1.43;;;21.80;99.90;;;;;;5033488;28;20566;-57
2023/10/09 04:55:24;;;;;;;1.87;1.47;;;21.90;99.90;;;;;;5030080;28;20453;-56
2023/10/09 04:58:08;;;;;;;1.80;1.60;;;21.80;99.90;;;;;;5030304;28;20581;-56
2023/10/09 05:01:04;;;;;;;1.80;1.40;;;21.80;99.90;;;;;;5033154;28;20523;-57
2023/10/09 05:03:42;;;;;;;2.10;1.40;;;21.80;99.90;;;;;;5034498;28;20463;-58
2023/10/09 05:06:21;;;;;;;2.07;1.87;;;21.80;99.90;;;;;;5032717;28;20628;-56
2023/10/09 05:08:48;;;;;;;1.77;1.40;;;21.80;99.90;;;;;;5032869;28;20962;-58
2023/10/09 05:11:34;;;;;;;2.23;1.60;;;21.80;99.90;;;;;;5033807;28;20738;-56
2023/10/09 05:16:54;;;;;;;1.90;1.70;;;21.80;99.90;;;;;;5029847;28;20459;-54
2023/10/09 05:19:41;;;;;;;2.33;1.60;;;21.80;99.90;;;;;;5031211;28;20925;-57
2023/10/09 05:22:29;;;;;;;2.87;2.23;;;21.80;99.90;;;;;;5031282;28;21035;-56
2023/10/09 05:24:56;;;;;;;2.23;1.60;;;21.80;99.90;;;;;;5030934;28;20457;-53
2023/10/09 05:27:45;;;;;;;2.33;1.60;;;21.80;99.90;;;;;;5031690;28;20487;-54
2023/10/09 05:30:33;;;;;;;2.40;1.87;;;21.80;99.90;;;;;;5032819;28;20468;-55
2023/10/09 05:33:08;;;;;;;2.47;1.60;;;21.80;99.90;;;;;;5030091;28;20461;-58
2023/10/09 05:35:40;;;;;;;2.27;1.60;;;21.80;99.90;;;;;;5033564;28;20952;-55
2023/10/09 05:38:22;;;;;;;3.20;1.60;;;21.80;99.90;;;;;;5034587;28;20452;-57
2023/10/09 05:40:53;;;;;;;1.67;1.37;;;21.80;99.90;;;;;;5032324;28;20480;-56
2023/10/09 05:46:09;;;;;;;1.90;1.70;;;21.80;99.90;;;;;;5033359;28;20449;-57
2023/10/09 05:48:54;;;;;;;2.30;1.97;;;21.80;99.90;;;;;;5032126;28;20456;-57
2023/10/09 06:05:40;;;;;;;2.40;1.93;;;21.90;99.90;;;;;;5017655;28;20461;-54
2023/10/09 06:08:06;;;;;;;2.40;1.50;;;22.00;99.90;;;;;;5016384;28;20454;-57
2023/10/09 06:10:39;;;;;;;2.17;1.73;;;22.00;99.90;;;;;;5013993;28;20488;-57
2023/10/09 06:13:07;;;;;;;2.27;1.60;;;22.00;99.90;;;;;;5017451;28;20453;-57
2023/10/09 06:16:09;;;;;;;2.37;1.77;;;22.00;99.90;;;;;;5017223;28;20520;-55
2023/10/09 06:18:41;;;;;;;1.93;1.33;;;22.00;99.90;;;;;;5016225;28;20488;-54
2023/10/09 06:21:09;;;;;;;1.80;1.70;;;22.00;99.90;;;;;;5016990;28;20486;-54
2023/10/09 06:24:09;;;;;;;2.23;2.03;;;22.00;99.90;;;;;;5017416;28;20484;-55
2023/10/09 06:26:36;;;;;;;1.80;1.47;;;22.00;99.90;;;;;;5017964;28;20836;-54
2023/10/09 06:29:15;;;;;;;2.10;1.70;;;22.00;99.90;;;;;;5016098;28;20477;-57
2023/10/09 06:32:16;;;;;;;3.10;1.57;;;22.00;99.90;;;;;;5015888;28;21157;-53
2023/10/09 06:34:51;;;;;;;1.90;1.53;;;22.00;99.90;;;;;;5013639;28;21530;-57
2023/10/09 06:37:19;;;;;;;1.30;1.20;;;22.10;99.90;;;;;;5018200;28;20457;-55
2023/10/09 06:40:10;;;;;;;1.77;1.40;;;22.10;99.90;;;;;;5015429;28;20982;-52
2023/10/09 06:42:43;;;;;;;1.70;1.40;;;22.10;99.90;;;;;;5016926;28;20450;-56
2023/10/09 06:45:16;;;;;;;3.13;2.50;;;22.10;99.90;;;;;;5014195;28;20496;-54
2023/10/09 06:47:53;;;;;;;1.40;1.30;;;22.10;99.90;;;;;;5013673;28;20492;-57
2023/10/09 06:50:55;;;;;;;1.97;1.87;;;22.10;99.90;;;;;;5017332;28;20465;-55
2023/10/09 06:53:28;;;;;;;2.47;1.70;;;22.10;99.90;;;;;;5015907;28;20447;-52
2023/10/09 06:56:05;;;;;;;1.97;1.50;;;22.10;99.90;;;;;;5015454;28;20466;-54
2023/10/09 06:58:41;;;;;;;2.30;1.50;;;22.10;99.90;;;;;;5014229;28;20457;-57
2023/10/09 07:01:28;;;;;;;2.23;2.03;;;22.10;99.90;;;;;;5015396;28;21024;-56
2023/10/09 07:03:59;;;;;;;2.37;1.30;;;22.10;99.90;;;;;;5014536;28;20468;-55
2023/10/09 07:09:20;;;;;;;1.90;1.50;;;22.10;99.90;;;;;;5015963;28;20640;-57
2023/10/09 07:11:57;;;;;;;2.27;1.50;;;22.10;99.90;;;;;;5017208;28;20481;-57
2023/10/09 07:17:21;;;;;;;1.53;1.30;;;22.10;99.90;;;;;;5017197;28;20447;-57
2023/10/09 07:20:09;;;;;;;2.37;1.90;;;22.10;99.90;;;;;;5018456;28;20462;-54
2023/10/09 07:22:52;;;;;;;1.70;1.27;;;22.10;99.90;;;;;;5013402;28;20461;-54
2023/10/09 07:25:32;;;;;;;1.30;1.20;;;22.10;99.90;;;;;;5013146;28;21079;-57
2023/10/09 07:27:59;;;;;;;1.93;1.53;;;22.10;99.90;;;;;;5015343;28;20565;-57
2023/10/09 07:30:38;;;;;;;2.60;1.60;;;22.10;99.90;;;;;;5011876;28;20556;-53
2023/10/09 07:33:16;;;;;;;2.33;1.70;;;22.10;99.90;;;;;;5009975;28;21249;-50
2023/10/09 07:35:48;;;;;;;2.50;1.23;;;22.10;99.90;;;;;;5010314;28;21209;-51
2023/10/09 07:38:19;;;;;;;1.90;1.33;;;22.10;99.90;;;;;;5013217;28;20454;-49
2023/10/09 07:40:55;;;;;;;2.00;1.37;;;22.10;99.90;;;;;;5013082;28;20474;-53
2023/10/09 07:43:26;;;;;;;1.80;1.53;;;22.10;99.90;;;;;;5014754;28;20601;-50
2023/10/09 07:46:30;;;;;;;1.97;1.57;;;22.20;99.90;;;;;;5010349;28;21106;-49
2023/10/09 07:48:52;;;;;;;1.50;1.20;;;22.10;99.90;;;;;;5014909;28;20453;-48
2023/10/09 07:51:22;;;;;;;1.63;1.40;;;22.20;99.90;;;;;;5013394;28;20458;-50
2023/10/09 07:53:56;;;;;;;1.60;1.50;;;22.20;99.90;;;;;;5015857;28;20465;-49
2023/10/09 07:56:24;;;;;;;2.23;1.87;;;22.20;99.90;;;;;;5011218;28;20458;-53
2023/10/09 07:58:51;;;;;;;2.27;1.50;;;22.20;99.90;;;;;;5014717;28;20849;-49
2023/10/09 08:01:23;;;;;;;2.93;2.23;;;22.20;99.90;;;;;;5009365;28;20493;-49
2023/10/09 08:04:01;;;;;;;2.07;1.80;;;22.20;99.90;;;;;;5013841;28;20585;-52
2023/10/09 08:06:42;;;;;;;2.20;2.00;;;22.10;99.90;;;;;;5009079;28;20457;-52
2023/10/09 08:09:28;;;;;;;4.23;3.00;;;22.20;99.90;;;;;;5013654;28;20500;-51
2023/10/09 08:12:13;;;;;;;5.17;2.57;;;22.20;99.90;;;;;;5011137;28;20466;-51
2023/10/09 08:14:45;;;;;;;7.93;3.67;;;22.20;99.90;;;;;;5010403;28;20466;-53
2023/10/09 08:17:13;;;;;;;7.40;4.33;;;22.10;99.90;;;;;;5012705;28;20468;-52
2023/10/09 08:19:53;;;;;;;9.83;4.80;;;22.10;99.90;;;;;;5008739;28;20466;-52
2023/10/09 08:25:08;;;;;;;7.03;5.27;;;22.10;99.90;;;;;;5014173;28;20446;-51
2023/10/09 08:27:47;;;;;;;9.27;6.10;;;22.10;99.90;;;;;;5012373;28;20461;-50
2023/10/09 08:30:28;;;;;;;10.30;6.87;;;22.10;99.90;;;;;;5011877;28;20992;-50
2023/10/09 08:33:00;;;;;;;10.27;5.97;;;22.10;99.90;;;;;;5014668;28;20491;-50
2023/10/09 08:35:30;;;;;;;7.57;5.50;;;22.10;99.90;;;;;;5008463;28;22387;-51
2023/10/09 08:38:03;;;;;;;9.93;6.20;;;22.10;99.90;;;;;;5010672;28;21538;-51
2023/10/09 08:40:37;;;;;;;8.70;7.00;;;22.10;99.90;;;;;;5013732;28;21138;-49
2023/10/09 08:43:10;;;;;;;9.50;6.93;;;22.10;99.90;;;;;;5015350;28;20442;-50
2023/10/09 08:45:40;;;;;;;9.30;6.97;;;22.10;99.90;;;;;;5014442;28;20947;-49
2023/10/09 08:48:08;;;;;;;13.57;8.13;;;22.10;99.90;;;;;;5013348;28;20459;-51
2023/10/09 08:50:36;;;;;;;10.80;7.70;;;22.10;99.90;;;;;;5012548;28;20465;-49
2023/10/09 08:53:04;;;;;;;10.43;7.07;;;22.10;99.90;;;;;;5014516;28;20486;-52
2023/10/09 08:55:31;;;;;;;9.90;6.80;;;22.10;99.90;;;;;;5009920;28;20458;-48
2023/10/09 08:57:59;;;;;;;18.03;8.03;;;22.10;99.90;;;;;;5013872;28;21087;-50
2023/10/09 09:00:33;;;;;;;9.17;7.33;;;22.10;99.90;;;;;;5007426;28;20458;-48
2023/10/09 09:03:01;;;;;;;8.50;7.17;;;22.00;99.90;;;;;;5010703;28;20470;-52
2023/10/09 09:05:28;;;;;;;8.23;6.40;;;22.10;99.90;;;;;;5014148;28;20462;-52
2023/10/09 09:07:59;;;;;;;5.67;4.97;;;22.10;99.90;;;;;;5015341;28;20457;-53
2023/10/09 09:10:35;;;;;;;12.70;7.77;;;22.10;99.90;;;;;;5013984;28;20556;-53
2023/10/09 09:13:03;;;;;;;10.83;7.27;;;22.10;99.90;;;;;;5013163;28;20457;-53
2023/10/09 09:15:31;;;;;;;9.50;6.20;;;22.10;99.90;;;;;;5015651;28;20508;-47
2023/10/09 09:18:06;;;;;;;7.67;5.37;;;22.10;99.90;;;;;;5014698;28;20980;-51
2023/10/09 09:20:36;;;;;;;11.07;6.80;;;22.10;99.90;;;;;;5014294;28;20464;-53
2023/10/09 09:23:04;;;;;;;6.97;4.57;;;22.10;99.90;;;;;;5016532;28;20535;-53
2023/10/09 09:25:44;;;;;;;6.43;5.83;;;22.10;99.90;;;;;;5015858;28;20533;-53
2023/10/09 09:28:19;;;;;;;7.70;5.70;;;22.10;99.90;;;;;;5018236;28;20454;-55
2023/10/09 09:30:50;;;;;;;7.17;4.93;;;22.10;99.90;;;;;;5016405;28;20462;-51
2023/10/09 09:33:26;;;;;;;7.40;6.17;;;22.10;99.90;;;;;;5015328;28;20462;-52
2023/10/09 09:36:02;;;;;;;6.97;5.30;;;22.10;99.90;;;;;;5015666;28;20464;-52
2023/10/09 09:38:35;;;;;;;7.57;5.13;;;22.10;99.90;;;;;;5016448;28;20496;-53
2023/10/09 09:41:07;;;;;;;7.23;5.60;;;22.10;99.90;;;;;;5017961;28;21004;-51
2023/10/09 09:43:40;;;;;;;8.77;5.00;;;22.10;99.90;;;;;;5016785;28;20463;-52
2023/10/09 09:46:10;;;;;;;7.00;4.70;;;22.10;99.90;;;;;;5015844;28;20473;-52
2023/10/09 09:48:44;;;;;;;6.13;5.53;;;22.10;99.90;;;;;;5014212;28;20969;-52
2023/10/09 09:51:15;;;;;;;5.90;4.23;;;22.10;99.90;;;;;;5015188;28;20596;-51
2023/10/09 09:53:41;;;;;;;6.90;5.30;;;22.10;99.90;;;;;;5016950;28;20454;-52
2023/10/09 09:56:14;;;;;;;6.67;5.63;;;22.10;99.90;;;;;;5016300;28;20611;-51
2023/10/09 09:58:44;;;;;;;8.50;5.70;;;22.10;99.90;;;;;;5012715;28;20970;-53
2023/10/09 10:01:22;;;;;;;5.60;5.10;;;22.10;99.90;;;;;;5016326;28;20478;-53
2023/10/09 10:03:56;;;;;;;6.37;5.63;;;22.10;99.90;;;;;;5017548;28;20458;-54
2023/10/09 10:06:26;;;;;;;6.70;4.80;;;22.10;99.90;;;;;;5016238;28;20454;-52
2023/10/09 10:08:54;;;;;;;7.07;5.67;;;22.10;99.90;;;;;;5018268;28;20954;-53
2023/10/09 10:11:44;;;;;;;10.70;4.97;;;22.10;99.90;;;;;;5013565;28;20461;-51
2023/10/09 10:14:21;;;;;;;8.33;5.10;;;22.10;99.90;;;;;;5016523;28;20472;-54
2023/10/09 10:17:16;;;;;;;7.70;4.60;;;22.10;99.90;;;;;;5011042;28;20470;-54
2023/10/09 10:20:25;;;;;;;9.47;5.37;;;22.00;99.90;;;;;;5014089;28;20480;-55
2023/10/09 10:22:50;;;;;;;6.93;4.70;;;22.10;99.90;;;;;;5016153;28;20466;-52
2023/10/09 10:25:41;;;;;;;7.33;5.00;;;22.10;99.90;;;;;;5012047;28;20916;-50
2023/10/09 10:28:35;;;;;;;5.40;4.90;;;22.10;99.90;;;;;;5013527;28;21035;-49
2023/10/09 10:31:06;;;;;;;7.00;5.00;;;22.10;99.90;;;;;;5014336;28;20461;-52
2023/10/09 10:34:10;;;;;;;8.67;5.20;;;22.10;99.90;;;;;;5013475;28;20538;-50
2023/10/09 10:36:42;;;;;;;5.00;4.13;;;22.10;99.90;;;;;;5013321;28;21284;-57
2023/10/09 10:39:10;;;;;;;6.73;5.30;;;22.10;99.90;;;;;;5013252;28;20472;-58
2023/10/09 10:41:48;;;;;;;8.87;5.03;;;22.10;99.90;;;;;;5014775;28;22246;-55
2023/10/09 10:44:36;;;;;;;12.30;5.60;;;22.10;99.90;;;;;;5010129;28;20458;-59
2023/10/09 10:47:04;;;;;;;7.67;4.20;;;22.10;99.90;;;;;;5016998;28;20773;-59
2023/10/09 10:49:37;;;;;;;6.33;4.10;;;22.20;99.90;;;;;;5008293;28;20461;-59
2023/10/09 10:52:17;;;;;;;6.60;3.77;;;22.20;99.90;;;;;;5015281;28;20456;-56
2023/10/09 10:55:01;;;;;;;5.10;3.60;;;22.20;99.90;;;;;;5014963;28;20485;-62
2023/10/09 10:57:29;;;;;;;5.10;4.13;;;22.20;99.90;;;;;;5015960;28;20457;-56
2023/10/09 11:00:12;;;;;;;8.17;5.10;;;22.20;99.90;;;;;;5016086;28;20478;-56
2023/10/09 11:02:43;;;;;;;6.20;4.67;;;22.20;99.90;;;;;;5014264;28;20207;-56
2023/10/09 11:05:23;;;;;;;5.07;4.37;;;22.20;99.90;;;;;;5009983;28;21053;-60
2023/10/09 11:07:56;;;;;;;8.60;3.90;;;22.20;99.90;;;;;;5016579;28;20458;-54
2023/10/09 11:10:28;;;;;;;6.27;3.93;;;22.30;99.90;;;;;;5014851;28;20588;-56
2023/10/09 11:16:14;;;;;;;5.13;3.90;;;22.30;99.90;;;;;;5016291;28;20559;-56
2023/10/09 11:18:47;;;;;;;4.70;4.30;;;22.40;99.90;;;;;;5014333;28;20925;-55
2023/10/09 11:21:30;;;;;;;5.20;4.70;;;22.30;99.90;;;;;;5018158;28;20455;-60
2023/10/09 11:24:23;;;;;;;6.20;4.83;;;22.40;99.90;;;;;;5016424;28;21464;-62
2023/10/09 11:26:54;;;;;;;5.80;4.83;;;22.40;99.90;;;;;;5016626;28;20450;-53
2023/10/09 11:29:29;;;;;;;5.07;4.20;;;22.40;99.90;;;;;;5014834;28;21819;-63
2023/10/09 11:31:59;;;;;;;4.97;4.33;;;22.40;99.90;;;;;;5015700;28;21740;-61
2023/10/09 11:34:31;;;;;;;6.33;4.80;;;22.40;99.90;;;;;;5018691;28;21043;-56
2023/10/09 11:36:58;;;;;;;4.67;4.00;;;22.40;99.90;;;;;;5020147;28;20460;-58
2023/10/09 11:39:31;;;;;;;3.70;3.33;;;22.50;99.90;;;;;;5017480;28;20459;-56
2023/10/09 11:42:04;;;;;;;5.30;4.80;;;22.50;99.90;;;;;;5014859;28;20487;-56
2023/10/09 11:44:39;;;;;;;6.30;4.03;;;22.50;99.90;;;;;;5013783;28;20459;-55
2023/10/09 11:47:32;;;;;;;5.10;3.70;;;22.50;99.90;;;;;;5014845;28;20450;-58
2023/10/09 11:50:13;;;;;;;7.87;4.87;;;22.60;99.90;;;;;;5011055;28;20460;-56
2023/10/09 11:53:08;;;;;;;6.20;4.40;;;22.60;99.90;;;;;;5015850;28;20468;-55
2023/10/09 11:55:35;;;;;;;6.50;4.80;;;22.60;99.90;;;;;;5013929;28;21449;-57
2023/10/09 11:58:04;;;;;;;4.43;4.03;;;22.60;99.90;;;;;;5016448;28;20454;-56
2023/10/09 12:00:42;;;;;;;4.73;4.27;;;22.60;99.90;;;;;;5014962;28;21555;-56
2023/10/09 12:03:09;;;;;;;6.03;4.00;;;22.60;99.90;;;;;;5011651;28;21131;-55
2023/10/09 12:05:37;;;;;;;4.67;4.23;;;22.70;99.90;;;;;;5014591;28;20475;-59
2023/10/09 12:08:08;;;;;;;4.73;3.80;;;22.70;99.90;;;;;;5017633;28;20458;-60
2023/10/09 12:10:38;;;;;;;4.33;3.93;;;22.70;99.90;;;;;;5015004;28;20458;-56
2023/10/09 12:13:05;;;;;;;5.57;4.20;;;22.70;99.90;;;;;;5017640;28;20553;-59
2023/10/09 12:15:37;;;;;;;4.10;3.70;;;22.70;99.90;;;;;;5019038;28;20589;-57
2023/10/09 12:18:06;;;;;;;4.20;3.67;;;22.70;99.90;;;;;;5012483;28;20463;-60
2023/10/09 12:20:35;;;;;;;5.67;4.00;;;22.80;99.90;;;;;;5016636;28;20507;-59
2023/10/09 12:23:05;;;;;;;5.93;4.50;;;22.80;99.90;;;;;;5014736;28;20490;-57
2023/10/09 12:25:33;;;;;;;4.63;4.10;;;22.80;99.90;;;;;;5015561;28;20478;-55
2023/10/09 12:28:01;;;;;;;4.33;3.13;;;22.80;99.90;;;;;;5016038;28;20454;-58
2023/10/09 12:30:28;;;;;;;5.00;4.50;;;22.80;99.90;;;;;;5013000;28;20464;-60
2023/10/09 12:32:57;;;;;;;4.67;4.23;;;22.80;99.90;;;;;;5017525;28;20567;-58
2023/10/09 12:35:24;;;;;;;5.13;4.50;;;22.80;99.90;;;;;;5016925;28;20996;-55
2023/10/09 12:37:52;;;;;;;4.47;3.80;;;22.80;99.90;;;;;;5018116;28;20466;-54
2023/10/09 12:40:24;;;;;;;4.53;4.13;;;22.90;99.90;;;;;;5014687;28;20473;-61
2023/10/09 12:42:52;;;;;;;4.40;3.93;;;22.90;99.90;;;;;;5010630;28;20476;-54
2023/10/09 12:45:25;;;;;;;3.83;3.23;;;22.90;99.90;;;;;;5017267;28;20835;-55
2023/10/09 12:47:53;;;;;;;3.53;3.13;;;22.90;99.90;;;;;;5014121;28;20463;-53
2023/10/09 12:50:27;;;;;;;3.77;3.03;;;22.90;99.90;;;;;;5016757;28;20568;-53
2023/10/09 12:52:55;;;;;;;4.33;4.00;;;22.90;99.90;;;;;;5015239;28;20475;-56
2023/10/09 12:55:31;;;;;;;4.63;3.40;;;22.90;99.90;;;;;;5014825;28;20474;-60
2023/10/09 12:58:00;;;;;;;4.57;4.07;;;23.00;99.90;;;;;;5017799;28;20874;-56
2023/10/09 13:00:32;;;;;;;4.37;3.43;;;23.00;99.90;;;;;;5017716;28;20460;-56
2023/10/09 13:03:00;;;;;;;5.40;3.80;;;23.00;99.90;;;;;;5017944;28;20993;-58
2023/10/09 13:05:27;;;;;;;6.70;3.60;;;23.00;99.90;;;;;;5016542;28;21064;-59
2023/10/09 13:07:56;;;;;;;5.30;3.53;;;23.00;99.90;;;;;;5018461;28;20468;-55
2023/10/09 13:10:25;;;;;;;4.33;3.93;;;23.00;99.90;;;;;;5012311;28;20462;-56
2023/10/09 13:12:56;;;;;;;3.50;3.20;;;23.10;99.90;;;;;;5013333;28;20464;-59
2023/10/09 13:15:23;;;;;;;4.97;4.00;;;23.00;99.90;;;;;;5017306;28;20624;-60
2023/10/09 13:17:53;;;;;;;4.27;3.67;;;23.00;99.90;;;;;;5013635;28;20465;-60
2023/10/09 13:20:19;;;;;;;3.53;3.23;;;23.00;99.90;;;;;;5013176;28;20533;-56
2023/10/09 13:22:48;;;;;;;3.53;3.03;;;23.00;99.90;;;;;;5017665;28;20490;-57
2023/10/09 13:25:16;;;;;;;3.93;3.10;;;23.00;99.90;;;;;;5017627;28;20483;-57
2023/10/09 13:27:50;;;;;;;4.33;3.93;;;23.00;99.90;;;;;;5016684;28;20459;-60
2023/10/09 13:30:21;;;;;;;4.10;3.80;;;23.00;99.90;;;;;;5016006;28;20463;-60
2023/10/09 13:32:49;;;;;;;4.80;3.63;;;23.00;99.90;;;;;;5017756;28;20463;-58
2023/10/09 13:35:18;;;;;;;3.93;3.33;;;23.00;99.90;;;;;;5018731;28;20465;-55
2023/10/09 13:37:51;;;;;;;5.50;3.47;;;23.00;99.90;;;;;;5017485;28;20462;-57
2023/10/09 13:40:26;;;;;;;3.87;2.80;;;23.00;99.90;;;;;;5015890;28;20509;-54
2023/10/09 13:42:58;;;;;;;3.27;2.97;;;23.00;99.90;;;;;;5017867;28;20988;-63
2023/10/09 13:45:27;;;;;;;3.97;3.60;;;23.00;99.90;;;;;;5017815;28;21470;-60
2023/10/09 13:47:54;;;;;;;3.60;3.10;;;23.00;99.90;;;;;;5011000;28;21055;-60
2023/10/09 13:50:22;;;;;;;4.60;3.37;;;23.00;99.90;;;;;;5017887;28;20458;-63
2023/10/09 13:52:48;;;;;;;4.73;3.40;;;23.10;99.90;;;;;;5016515;28;20468;-62
2023/10/09 13:55:18;;;;;;;4.70;3.10;;;23.10;99.90;;;;;;5013256;28;21500;-64
2023/10/09 13:57:45;;;;;;;3.73;3.27;;;23.00;99.90;;;;;;5016486;28;20471;-63
2023/10/09 14:00:19;;;;;;;3.77;3.00;;;23.00;99.90;;;;;;5011407;28;20587;-61
2023/10/09 14:02:46;;;;;;;9.40;3.70;;;23.10;99.90;;;;;;5015835;28;20480;-66